Time;durP1;ratioP1;P1;durP2;ratioP2;P2;SDS_P1;SDS_P2;PMS_P1;PMS_P2;Temp;Humidity;BMP_temperature;BMP_pressure;BME280_temperature;BME280_humidity;BME280_pressure;Samples;Min_cycle;Max_cycle;Signal;HPM_P1;HPM_P2
2022/11/22 00:02:13;;;;;;;41.45;15.65;;;2.50;99.90;;;;;;5006108;28;20053;-65
2022/11/22 00:04:38;;;;;;;34.72;14.77;;;2.40;99.90;;;;;;5007474;28;20041;-67
2022/11/22 00:07:04;;;;;;;38.70;15.95;;;2.40;99.90;;;;;;5006336;28;20038;-66
2022/11/22 00:09:29;;;;;;;37.22;17.10;;;2.40;99.90;;;;;;5008330;28;20061;-65
2022/11/22 00:11:55;;;;;;;36.90;15.60;;;2.40;99.90;;;;;;5024390;28;20045;-65
2022/11/22 00:14:21;;;;;;;36.53;15.80;;;2.40;99.90;;;;;;5002009;28;20046;-64
2022/11/22 00:16:47;;;;;;;30.77;13.27;;;2.40;99.90;;;;;;5007793;28;20102;-64
2022/11/22 00:19:12;;;;;;;31.92;14.20;;;2.40;99.90;;;;;;5000465;28;20069;-64
2022/11/22 00:21:38;;;;;;;41.47;15.63;;;2.50;99.90;;;;;;5007491;28;20112;-64
2022/11/22 00:24:04;;;;;;;38.63;16.00;;;2.40;99.90;;;;;;5010052;28;20052;-64
2022/11/22 00:26:29;;;;;;;38.72;17.13;;;2.50;99.90;;;;;;5006805;28;20397;-65
2022/11/22 00:28:55;;;;;;;41.88;15.57;;;2.40;99.90;;;;;;5007136;28;20030;-64
2022/11/22 00:31:20;;;;;;;37.72;15.70;;;2.50;99.90;;;;;;4998868;28;20038;-65
2022/11/22 00:33:46;;;;;;;34.65;16.27;;;2.50;99.90;;;;;;5007856;28;20039;-65
2022/11/22 00:36:12;;;;;;;37.20;16.48;;;2.40;99.90;;;;;;5010585;28;20066;-65
2022/11/22 00:38:37;;;;;;;40.20;16.17;;;2.40;99.90;;;;;;4993868;28;20084;-65
2022/11/22 00:41:03;;;;;;;41.58;17.55;;;2.40;99.90;;;;;;4992499;28;20088;-65
2022/11/22 00:43:28;;;;;;;33.80;14.20;;;2.40;99.90;;;;;;5011923;28;20045;-64
2022/11/22 00:45:54;;;;;;;39.08;16.98;;;2.40;99.90;;;;;;5010327;28;20065;-64
2022/11/22 00:48:19;;;;;;;45.92;18.00;;;2.40;99.90;;;;;;5011683;28;20030;-64
2022/11/22 00:50:48;;;;;;;45.40;18.65;;;2.40;99.90;;;;;;5011944;28;20038;-64
2022/11/22 00:53:13;;;;;;;43.13;17.00;;;2.50;99.90;;;;;;5011495;28;20429;-65
2022/11/22 00:55:39;;;;;;;40.20;17.15;;;2.40;99.90;;;;;;5012295;28;20057;-65
2022/11/22 00:58:04;;;;;;;39.05;15.93;;;2.50;99.90;;;;;;5006880;28;20041;-63
2022/11/22 01:00:30;;;;;;;39.72;13.82;;;2.50;99.90;;;;;;5010986;28;20480;-64
2022/11/22 01:02:56;;;;;;;46.22;16.98;;;2.50;99.90;;;;;;5008541;28;20049;-65
2022/11/22 01:05:21;;;;;;;37.90;15.73;;;2.50;99.90;;;;;;5010787;28;20486;-64
2022/11/22 01:07:47;;;;;;;44.58;16.90;;;2.50;99.90;;;;;;5010087;28;20418;-64
2022/11/22 01:10:13;;;;;;;39.78;16.52;;;2.50;99.90;;;;;;5012076;28;20042;-64
2022/11/22 01:12:39;;;;;;;51.15;17.98;;;2.50;99.90;;;;;;5013338;28;20114;-64
2022/11/22 01:15:05;;;;;;;44.45;17.58;;;2.50;99.90;;;;;;5007284;28;20420;-64
2022/11/22 01:17:31;;;;;;;49.10;19.65;;;2.50;99.90;;;;;;5011806;28;20105;-65
2022/11/22 01:19:56;;;;;;;43.45;17.27;;;2.50;99.90;;;;;;5010164;28;20372;-63
2022/11/22 01:22:22;;;;;;;38.25;16.27;;;2.50;99.90;;;;;;5000233;28;20056;-64
2022/11/22 01:24:47;;;;;;;45.95;18.20;;;2.60;99.90;;;;;;5010844;28;20045;-64
2022/11/22 01:27:13;;;;;;;45.90;16.95;;;2.60;99.90;;;;;;5009928;28;20033;-64
2022/11/22 01:29:38;;;;;;;48.60;18.08;;;2.60;99.90;;;;;;5010634;28;20038;-64
2022/11/22 01:32:05;;;;;;;42.72;16.10;;;2.60;99.90;;;;;;5007821;28;20041;-63
2022/11/22 01:34:31;;;;;;;41.35;15.60;;;2.70;99.90;;;;;;5008326;28;20038;-65
2022/11/22 01:36:57;;;;;;;42.88;18.23;;;2.70;99.90;;;;;;5011288;28;20492;-64
2022/11/22 01:39:22;;;;;;;44.10;18.48;;;2.70;99.90;;;;;;5002697;28;20470;-65
2022/11/22 01:41:48;;;;;;;45.17;17.80;;;2.70;99.90;;;;;;5030061;28;20040;-65
2022/11/22 01:44:17;;;;;;;49.83;18.35;;;2.70;99.90;;;;;;5000006;28;20582;-64
2022/11/22 01:46:43;;;;;;;41.33;17.77;;;2.70;99.90;;;;;;5019306;28;20596;-64
2022/11/22 01:49:16;;;;;;;46.00;18.67;;;2.80;99.90;;;;;;5010650;28;20037;-64
2022/11/22 01:51:47;;;;;;;45.28;19.38;;;2.70;99.90;;;;;;5008928;28;20556;-64
2022/11/22 01:54:18;;;;;;;43.35;18.33;;;2.80;99.90;;;;;;5010499;28;20077;-65
2022/11/22 01:56:49;;;;;;;42.83;16.88;;;2.80;99.90;;;;;;5023488;28;20095;-65
2022/11/22 01:59:18;;;;;;;44.25;16.77;;;2.80;99.90;;;;;;5005947;28;20105;-64
2022/11/22 02:01:44;;;;;;;40.30;17.20;;;2.80;99.90;;;;;;5010223;28;20516;-65
2022/11/22 02:04:14;;;;;;;38.65;16.23;;;2.80;99.90;;;;;;5008247;28;20324;-64
2022/11/22 02:07:06;;;;;;;37.17;17.20;;;2.80;99.90;;;;;;5007946;28;20394;-65
2022/11/22 02:09:32;;;;;;;41.40;17.92;;;2.90;99.90;;;;;;5008861;28;20045;-64
2022/11/22 02:12:02;;;;;;;40.33;16.42;;;2.90;99.90;;;;;;5010181;28;20457;-64
2022/11/22 02:14:29;;;;;;;42.25;17.00;;;2.90;99.90;;;;;;5006200;28;20045;-65
2022/11/22 02:16:55;;;;;;;43.92;17.08;;;2.90;99.90;;;;;;5007539;28;20034;-64
2022/11/22 02:19:42;;;;;;;38.80;17.05;;;2.90;99.90;;;;;;5010401;28;20041;-66
2022/11/22 02:22:39;;;;;;;41.13;17.58;;;2.90;99.90;;;;;;5007099;28;20458;-65
2022/11/22 02:25:21;;;;;;;34.72;14.48;;;2.90;99.90;;;;;;5008304;28;20474;-65
2022/11/22 02:27:48;;;;;;;42.10;16.42;;;2.90;99.90;;;;;;5006515;28;20042;-65
2022/11/22 02:30:14;;;;;;;43.03;18.13;;;2.90;99.90;;;;;;5003063;28;20073;-67
2022/11/22 02:32:39;;;;;;;41.22;17.13;;;2.90;99.90;;;;;;5001875;28;20042;-66
2022/11/22 02:35:18;;;;;;;40.35;17.63;;;2.90;99.90;;;;;;5010096;28;20068;-66
2022/11/22 02:37:46;;;;;;;31.35;13.60;;;2.90;99.90;;;;;;4999132;28;20445;-66
2022/11/22 02:40:15;;;;;;;43.42;17.48;;;3.00;99.90;;;;;;5008415;28;20511;-65
2022/11/22 02:42:46;;;;;;;44.33;18.00;;;2.90;99.90;;;;;;5006431;28;20971;-67
2022/11/22 02:45:12;;;;;;;43.90;16.65;;;2.90;99.90;;;;;;5007892;28;20046;-66
2022/11/22 02:47:38;;;;;;;45.35;17.08;;;3.00;99.90;;;;;;5004202;28;20033;-65
2022/11/22 02:50:04;;;;;;;44.13;17.10;;;3.00;99.90;;;;;;5008372;28;20065;-66
2022/11/22 02:52:29;;;;;;;44.97;17.27;;;2.90;99.90;;;;;;5004680;28;20052;-67
2022/11/22 02:54:55;;;;;;;43.55;19.17;;;2.90;99.90;;;;;;5001775;28;20133;-66
2022/11/22 02:57:20;;;;;;;37.33;16.58;;;3.00;99.90;;;;;;5008866;28;20489;-66
2022/11/22 02:59:46;;;;;;;43.22;16.67;;;3.00;99.90;;;;;;5008792;28;20045;-67
2022/11/22 03:02:11;;;;;;;45.95;18.60;;;3.00;99.90;;;;;;5005026;28;20038;-66
2022/11/22 03:04:37;;;;;;;40.75;17.08;;;3.00;99.90;;;;;;5001957;28;20041;-68
2022/11/22 03:07:03;;;;;;;41.55;17.90;;;3.00;99.90;;;;;;5009813;28;20034;-68
2022/11/22 03:09:29;;;;;;;43.78;17.70;;;3.00;99.90;;;;;;5008495;28;20108;-67
2022/11/22 03:11:55;;;;;;;46.95;18.52;;;3.00;99.90;;;;;;5005515;28;20061;-66
2022/11/22 03:14:21;;;;;;;45.15;17.20;;;3.00;99.90;;;;;;5008870;28;20045;-67
2022/11/22 03:16:47;;;;;;;44.13;17.52;;;3.00;99.90;;;;;;5004812;28;20038;-67
2022/11/22 03:19:12;;;;;;;44.03;17.80;;;3.00;99.90;;;;;;5030437;28;20045;-67
2022/11/22 03:21:40;;;;;;;43.42;17.58;;;2.90;99.90;;;;;;5005825;28;20038;-66
2022/11/22 03:24:07;;;;;;;44.75;17.45;;;3.10;99.90;;;;;;4992059;28;20042;-67
2022/11/22 03:26:33;;;;;;;42.33;17.65;;;3.00;99.90;;;;;;5005780;28;20405;-67
2022/11/22 03:28:59;;;;;;;44.40;18.00;;;3.00;99.90;;;;;;5001881;28;20050;-67
2022/11/22 03:31:24;;;;;;;41.33;17.23;;;3.00;99.90;;;;;;4990080;28;20045;-68
2022/11/22 03:33:50;;;;;;;50.58;18.85;;;3.10;99.90;;;;;;5007167;28;20030;-66
2022/11/22 03:36:19;;;;;;;49.35;17.58;;;3.00;99.90;;;;;;4996848;28;20046;-66
2022/11/22 03:38:45;;;;;;;50.10;18.98;;;3.10;99.90;;;;;;5006105;28;20496;-66
2022/11/22 03:41:10;;;;;;;44.53;17.45;;;3.10;99.90;;;;;;5007298;28;20045;-68
2022/11/22 03:43:37;;;;;;;38.15;15.93;;;3.10;99.90;;;;;;5007130;28;20485;-67
2022/11/22 03:46:02;;;;;;;45.92;17.67;;;3.10;99.90;;;;;;5004633;28;20042;-65
2022/11/22 03:48:28;;;;;;;45.92;18.40;;;3.10;99.90;;;;;;5009355;28;20480;-66
2022/11/22 03:51:01;;;;;;;48.08;19.40;;;3.10;99.90;;;;;;5006481;28;20531;-66
2022/11/22 03:53:26;;;;;;;44.75;17.83;;;3.20;99.90;;;;;;5008042;28;20051;-66
2022/11/22 03:55:52;;;;;;;42.80;18.20;;;3.00;99.90;;;;;;5010121;28;20144;-67
2022/11/22 03:58:17;;;;;;;49.05;18.33;;;3.00;99.90;;;;;;5004146;28;20073;-66
2022/11/22 04:00:43;;;;;;;46.85;17.65;;;3.20;99.90;;;;;;5006331;28;20042;-66
2022/11/22 04:03:08;;;;;;;40.28;18.17;;;3.20;99.90;;;;;;5007406;28;20034;-66
2022/11/22 04:05:34;;;;;;;46.92;18.20;;;3.10;99.90;;;;;;4989873;28;20075;-67
2022/11/22 04:07:59;;;;;;;45.45;17.90;;;3.20;99.90;;;;;;5026083;28;20103;-67
2022/11/22 04:10:25;;;;;;;46.97;18.15;;;3.20;99.90;;;;;;5010934;28;20065;-66
2022/11/22 04:12:55;;;;;;;46.15;18.25;;;3.10;99.90;;;;;;5011336;28;20033;-66
2022/11/22 04:15:20;;;;;;;47.80;18.10;;;3.20;99.90;;;;;;5011470;28;21871;-66
2022/11/22 04:17:47;;;;;;;46.13;17.50;;;3.20;99.90;;;;;;5001913;28;20045;-67
2022/11/22 04:23:13;;;;;;;47.10;17.73;;;3.20;99.90;;;;;;5000488;28;20045;-66
2022/11/22 04:25:42;;;;;;;43.30;17.63;;;3.20;99.90;;;;;;5011370;28;20100;-66
2022/11/22 04:28:10;;;;;;;47.08;18.30;;;3.10;99.90;;;;;;5009380;28;20052;-66
2022/11/22 04:33:21;;;;;;;45.08;17.45;;;3.20;99.90;;;;;;5004679;28;20050;-65
2022/11/22 04:35:47;;;;;;;45.78;17.27;;;3.10;99.90;;;;;;5007284;28;20589;-66
2022/11/22 04:38:13;;;;;;;43.03;16.35;;;3.20;99.90;;;;;;5006680;28;20095;-65
2022/11/22 04:40:39;;;;;;;43.85;17.17;;;3.20;99.90;;;;;;5007848;28;20039;-66
2022/11/22 04:45:53;;;;;;;43.70;17.75;;;3.30;99.90;;;;;;5010809;28;20469;-65
2022/11/22 04:48:18;;;;;;;42.13;18.52;;;3.30;99.90;;;;;;5003145;28;20035;-67
2022/11/22 04:53:29;;;;;;;41.22;17.20;;;3.40;99.90;;;;;;5016731;28;20554;-66
2022/11/22 04:55:55;;;;;;;43.95;18.30;;;3.30;99.90;;;;;;5011541;28;20034;-66
2022/11/22 04:58:22;;;;;;;43.65;17.50;;;3.30;99.90;;;;;;5005155;28;20080;-67
2022/11/22 05:00:48;;;;;;;50.33;19.38;;;3.50;99.90;;;;;;5011570;28;20045;-65
2022/11/22 05:03:14;;;;;;;39.05;16.58;;;3.40;99.90;;;;;;5007548;28;20038;-65
2022/11/22 05:05:41;;;;;;;39.70;16.90;;;3.40;99.90;;;;;;5012598;28;20355;-65
2022/11/22 05:08:08;;;;;;;41.40;16.90;;;3.40;99.90;;;;;;5017866;28;20038;-66
2022/11/22 05:13:21;;;;;;;40.33;17.95;;;3.50;99.90;;;;;;5011771;28;20050;-64
2022/11/22 05:15:47;;;;;;;41.80;16.85;;;3.60;99.90;;;;;;5000444;28;20045;-66
2022/11/22 05:18:13;;;;;;;41.17;16.90;;;3.40;99.90;;;;;;5010485;28;20052;-66
2022/11/22 05:20:38;;;;;;;42.35;17.25;;;3.70;99.90;;;;;;5009206;28;20132;-65
2022/11/22 05:25:48;;;;;;;37.80;16.27;;;3.60;99.90;;;;;;5011259;28;20405;-66
2022/11/22 05:28:14;;;;;;;42.20;17.00;;;3.70;99.90;;;;;;5008723;28;20044;-65
2022/11/22 05:30:40;;;;;;;47.05;18.33;;;3.60;99.90;;;;;;5011523;28;20417;-65
2022/11/22 05:33:05;;;;;;;43.50;18.05;;;3.60;99.90;;;;;;5006841;28;20042;-66
2022/11/22 05:35:31;;;;;;;42.13;16.65;;;3.60;99.90;;;;;;5009067;28;20700;-66
2022/11/22 05:37:57;;;;;;;41.85;17.48;;;3.70;99.90;;;;;;5005548;28;20548;-65
2022/11/22 05:40:24;;;;;;;38.13;16.35;;;3.60;99.90;;;;;;5007489;28;20128;-65
2022/11/22 05:42:49;;;;;;;38.50;16.58;;;3.60;99.90;;;;;;5010354;28;20037;-66
2022/11/22 05:45:15;;;;;;;41.92;16.63;;;3.60;99.90;;;;;;5008646;28;20045;-65
2022/11/22 05:47:40;;;;;;;45.40;17.48;;;3.60;99.90;;;;;;5010569;28;20038;-65
2022/11/22 05:50:07;;;;;;;41.95;18.02;;;3.70;99.90;;;;;;5009098;28;20060;-65
2022/11/22 05:52:32;;;;;;;48.20;18.83;;;3.70;99.90;;;;;;5008574;28;20041;-65
2022/11/22 05:54:58;;;;;;;43.80;17.45;;;3.80;99.90;;;;;;5010812;28;20046;-66
2022/11/22 05:57:27;;;;;;;39.42;16.27;;;3.70;99.90;;;;;;5008917;28;20502;-66
2022/11/22 05:59:53;;;;;;;44.58;18.65;;;3.70;99.90;;;;;;5023254;28;20044;-65
2022/11/22 06:02:19;;;;;;;40.05;17.08;;;3.90;99.90;;;;;;5011075;28;20037;-65
2022/11/22 06:04:44;;;;;;;44.55;18.05;;;3.70;99.90;;;;;;5011099;28;20416;-65
2022/11/22 06:07:10;;;;;;;40.75;17.45;;;3.80;99.90;;;;;;5011346;28;20033;-65
2022/11/22 06:09:36;;;;;;;40.78;16.77;;;3.80;99.90;;;;;;5010383;28;20079;-65
2022/11/22 06:12:01;;;;;;;44.10;17.10;;;3.80;99.90;;;;;;5010180;28;20042;-65
2022/11/22 06:14:27;;;;;;;44.42;17.10;;;3.80;99.90;;;;;;5010574;28;20042;-65
2022/11/22 06:16:52;;;;;;;45.28;17.85;;;3.90;99.90;;;;;;5007632;28;20045;-65
2022/11/22 06:19:18;;;;;;;45.78;17.58;;;3.80;99.90;;;;;;5025584;28;20034;-66
2022/11/22 06:21:44;;;;;;;41.67;17.50;;;3.80;99.90;;;;;;5005754;28;20121;-65
2022/11/22 06:24:09;;;;;;;40.30;17.30;;;3.90;99.90;;;;;;5011739;28;20401;-65
2022/11/22 06:26:36;;;;;;;47.80;18.45;;;3.90;99.90;;;;;;5009806;28;20042;-65
2022/11/22 06:29:02;;;;;;;39.13;16.80;;;3.90;99.90;;;;;;5008908;28;20046;-65
2022/11/22 06:31:28;;;;;;;45.55;18.00;;;3.80;99.90;;;;;;5008296;28;20084;-65
2022/11/22 06:33:58;;;;;;;40.30;18.30;;;3.90;99.90;;;;;;5009804;28;20128;-65
2022/11/22 06:36:26;;;;;;;43.83;16.08;;;3.70;99.90;;;;;;5004147;28;20056;-65
2022/11/22 06:38:51;;;;;;;41.50;16.50;;;3.70;99.90;;;;;;5006526;28;20133;-64
2022/11/22 06:41:22;;;;;;;41.50;17.17;;;3.90;99.90;;;;;;4999351;28;20124;-66
2022/11/22 06:43:49;;;;;;;44.05;17.77;;;3.80;99.90;;;;;;5000304;28;20438;-66
2022/11/22 06:46:16;;;;;;;46.58;17.30;;;4.00;99.90;;;;;;5003589;28;20121;-66
2022/11/22 06:48:42;;;;;;;42.22;17.98;;;4.00;99.90;;;;;;5006840;28;20049;-65
2022/11/22 06:51:11;;;;;;;49.30;18.88;;;3.90;99.90;;;;;;5007318;28;20469;-66
2022/11/22 06:53:37;;;;;;;43.75;18.13;;;3.90;99.90;;;;;;5007630;28;20045;-65
2022/11/22 06:56:05;;;;;;;49.20;18.77;;;4.10;99.90;;;;;;5024574;28;20524;-66
2022/11/22 06:58:31;;;;;;;43.63;17.67;;;4.10;99.90;;;;;;5008126;28;20409;-66
2022/11/22 07:01:01;;;;;;;41.20;17.63;;;4.00;99.90;;;;;;5010230;28;20104;-65
2022/11/22 07:03:27;;;;;;;;;;;4.10;99.90;;;;;;5012083;28;20049;-66
2022/11/22 07:05:53;;;;;;;43.22;18.25;;;4.10;99.90;;;;;;5016331;28;19925;-65
2022/11/22 07:08:19;;;;;;;47.38;18.08;;;4.10;99.90;;;;;;5003414;28;20552;-65
2022/11/22 07:10:45;;;;;;;43.45;17.85;;;4.20;99.90;;;;;;5009913;28;20096;-65
2022/11/22 07:13:10;;;;;;;45.38;17.70;;;4.20;99.90;;;;;;5000835;28;20046;-66
2022/11/22 07:15:36;;;;;;;43.20;17.65;;;4.20;99.90;;;;;;5006203;28;20046;-65
2022/11/22 07:18:02;;;;;;;40.67;16.67;;;4.20;99.90;;;;;;5004082;28;20056;-66
2022/11/22 07:20:27;;;;;;;45.45;17.10;;;4.40;99.90;;;;;;5006547;28;20041;-65
2022/11/22 07:22:53;;;;;;;44.75;17.92;;;4.20;99.90;;;;;;5007727;28;20038;-65
2022/11/22 07:25:18;;;;;;;41.75;16.45;;;4.30;99.90;;;;;;5008712;28;20049;-66
2022/11/22 07:27:44;;;;;;;42.20;17.20;;;4.30;99.90;;;;;;5010140;28;20116;-65
2022/11/22 07:30:10;;;;;;;40.88;17.33;;;4.30;99.90;;;;;;5010705;28;20111;-66
2022/11/22 07:32:36;;;;;;;45.35;16.80;;;4.40;99.90;;;;;;5009650;28;20125;-65
2022/11/22 07:35:01;;;;;;;46.65;16.98;;;4.40;99.90;;;;;;5008908;28;20129;-65
2022/11/22 07:37:29;;;;;;;40.22;15.85;;;4.40;99.90;;;;;;5009394;28;21960;-66
2022/11/22 07:39:54;;;;;;;37.13;15.10;;;4.50;99.90;;;;;;5008450;28;20092;-65
2022/11/22 07:42:20;;;;;;;49.35;15.50;;;4.60;99.90;;;;;;5009795;28;20033;-66
2022/11/22 07:44:46;;;;;;;38.00;15.60;;;4.60;99.90;;;;;;5007819;28;20062;-66
2022/11/22 07:47:11;;;;;;;45.00;15.07;;;4.70;99.90;;;;;;5008110;28;20070;-66
2022/11/22 07:49:38;;;;;;;34.65;14.25;;;4.60;99.90;;;;;;5007172;28;20048;-66
2022/11/22 07:52:04;;;;;;;37.70;13.75;;;4.70;99.90;;;;;;5007031;28;20073;-66
2022/11/22 07:54:30;;;;;;;40.60;12.32;;;4.90;99.90;;;;;;5012933;28;20034;-66
2022/11/22 07:56:55;;;;;;;29.85;12.02;;;4.80;99.90;;;;;;5008591;28;20674;-66
2022/11/22 07:59:21;;;;;;;28.67;10.43;;;4.80;99.90;;;;;;5007831;28;20038;-66
2022/11/22 08:01:47;;;;;;;25.00;10.18;;;5.00;99.90;;;;;;4993423;28;20116;-66
2022/11/22 08:04:13;;;;;;;28.75;10.50;;;4.90;99.90;;;;;;4991176;28;20112;-67
2022/11/22 08:06:39;;;;;;;26.30;10.07;;;5.00;99.90;;;;;;5004790;28;20045;-66
2022/11/22 08:09:04;;;;;;;24.77;9.63;;;5.10;99.90;;;;;;5010491;28;20128;-65
2022/11/22 08:11:30;;;;;;;24.45;9.07;;;5.10;99.90;;;;;;5007699;28;20048;-65
2022/11/22 08:13:56;;;;;;;27.48;8.95;;;5.10;99.90;;;;;;5010612;28;20050;-67
2022/11/22 08:16:21;;;;;;;20.42;8.32;;;5.10;99.90;;;;;;5007932;28;20049;-66
2022/11/22 08:18:48;;;;;;;18.67;7.22;;;5.10;99.90;;;;;;5002452;28;20379;-66
2022/11/22 08:21:15;;;;;;;17.13;8.07;;;5.00;99.90;;;;;;5006730;28;20162;-65
2022/11/22 08:23:42;;;;;;;17.90;7.53;;;5.10;99.90;;;;;;5006158;28;20058;-65
2022/11/22 08:26:11;;;;;;;21.50;8.02;;;5.00;99.90;;;;;;5010997;28;20046;-65
2022/11/22 08:28:37;;;;;;;29.17;8.20;;;5.00;99.90;;;;;;5008872;28;20131;-66
2022/11/22 08:31:12;;;;;;;12.68;5.97;;;5.10;99.90;;;;;;5005908;28;20046;-65
2022/11/22 08:33:38;;;;;;;22.35;6.47;;;5.10;99.90;;;;;;5010321;28;20069;-65
2022/11/22 08:36:04;;;;;;;18.55;6.63;;;5.20;99.90;;;;;;5007421;28;20068;-65
2022/11/22 08:38:32;;;;;;;19.02;6.20;;;5.20;99.90;;;;;;5010568;28;20120;-65
2022/11/22 08:40:58;;;;;;;20.70;5.68;;;5.30;99.90;;;;;;5006941;28;20056;-65
2022/11/22 08:43:24;;;;;;;16.55;5.05;;;5.30;99.90;;;;;;5008217;28;20358;-66
2022/11/22 08:45:55;;;;;;;16.92;5.00;;;5.30;99.90;;;;;;5006454;28;20065;-64
2022/11/22 08:48:21;;;;;;;16.23;4.60;;;5.30;99.90;;;;;;5005528;28;20478;-66
2022/11/22 08:50:57;;;;;;;17.25;5.05;;;5.30;99.90;;;;;;5008240;28;20053;-66
2022/11/22 08:53:23;;;;;;;15.85;4.43;;;5.40;99.90;;;;;;4996138;28;20053;-65
2022/11/22 08:55:50;;;;;;;22.48;5.03;;;5.40;99.90;;;;;;5001235;28;20067;-65
2022/11/22 08:58:16;;;;;;;11.43;4.72;;;5.30;99.90;;;;;;5009281;28;20034;-65
2022/11/22 09:00:42;;;;;;;12.73;4.40;;;5.30;99.90;;;;;;5013681;28;20083;-65
2022/11/22 09:03:08;;;;;;;15.73;3.72;;;5.30;99.90;;;;;;5013390;28;20140;-65
2022/11/22 09:05:33;;;;;;;11.13;3.50;;;5.30;99.90;;;;;;5012716;28;20045;-65
2022/11/22 09:07:59;;;;;;;13.05;3.45;;;5.30;99.90;;;;;;5013451;28;20171;-65
2022/11/22 09:10:25;;;;;;;8.60;3.53;;;5.30;99.90;;;;;;4999098;28;20390;-65
2022/11/22 09:12:51;;;;;;;18.45;4.43;;;5.40;99.90;;;;;;4993411;28;20050;-65
2022/11/22 09:15:17;;;;;;;19.55;4.10;;;5.30;99.90;;;;;;4995050;28;20042;-65
2022/11/22 09:17:43;;;;;;;16.90;4.28;;;5.40;99.90;;;;;;5003101;28;20053;-65
2022/11/22 09:20:09;;;;;;;12.68;2.88;;;5.30;99.90;;;;;;5013138;28;20108;-64
2022/11/22 09:22:35;;;;;;;14.57;2.85;;;5.40;99.90;;;;;;5012748;28;20046;-63
2022/11/22 09:25:02;;;;;;;16.30;3.92;;;5.40;99.90;;;;;;5012877;28;20113;-64
2022/11/22 09:27:28;;;;;;;12.85;2.83;;;5.50;99.90;;;;;;5013472;28;20034;-65
2022/11/22 09:29:54;;;;;;;11.27;3.20;;;5.50;99.90;;;;;;5012735;28;20050;-64
2022/11/22 09:32:20;;;;;;;16.73;3.63;;;5.60;99.90;;;;;;5013638;28;20841;-65
2022/11/22 09:34:45;;;;;;;16.33;3.78;;;5.60;99.90;;;;;;5011428;28;20497;-64
2022/11/22 09:37:11;;;;;;;12.45;3.47;;;5.70;99.90;;;;;;5009262;28;20042;-64
2022/11/22 09:39:37;;;;;;;14.05;3.50;;;5.70;99.90;;;;;;5009920;28;20090;-65
2022/11/22 09:42:39;;;;;;;11.60;3.45;;;5.70;99.90;;;;;;5011178;28;20080;-65
2022/11/22 09:45:33;;;;;;;7.05;2.83;;;5.70;99.90;;;;;;5007587;28;20476;-65
2022/11/22 09:48:17;;;;;;;11.25;3.50;;;5.80;99.90;;;;;;5005064;28;20054;-67
2022/11/22 09:51:04;;;;;;;11.73;3.25;;;5.80;99.90;;;;;;5010511;28;20381;-63
2022/11/22 09:53:40;;;;;;;14.63;3.10;;;5.90;99.90;;;;;;5010728;28;20551;-64
2022/11/22 09:56:13;;;;;;;13.77;3.00;;;5.90;99.90;;;;;;5022896;28;20423;-64
2022/11/22 09:58:54;;;;;;;9.13;2.67;;;5.90;99.90;;;;;;5011260;28;20053;-64
2022/11/22 10:01:26;;;;;;;13.20;3.85;;;5.90;99.90;;;;;;4999363;28;20098;-64
2022/11/22 10:04:06;;;;;;;13.35;2.90;;;5.90;99.90;;;;;;4997010;28;20025;-63
2022/11/22 10:06:39;;;;;;;13.35;2.63;;;6.00;99.90;;;;;;5010878;28;20064;-64
2022/11/22 10:09:33;;;;;;;16.17;3.72;;;6.00;99.90;;;;;;5007427;28;20547;-64
2022/11/22 10:12:19;;;;;;;8.82;2.92;;;6.00;99.90;;;;;;5000186;28;20057;-64
2022/11/22 10:15:13;;;;;;;10.13;2.70;;;6.10;99.90;;;;;;5011734;28;20038;-64
2022/11/22 10:18:00;;;;;;;12.68;2.78;;;6.20;99.90;;;;;;5006597;28;20042;-64
2022/11/22 10:20:28;;;;;;;9.90;3.33;;;6.20;99.90;;;;;;5009631;28;20041;-63
2022/11/22 10:22:56;;;;;;;10.10;2.38;;;6.30;99.90;;;;;;5012871;28;20081;-64
2022/11/22 10:25:39;;;;;;;12.77;3.15;;;6.40;99.90;;;;;;5011276;28;20042;-64
2022/11/22 10:28:17;;;;;;;10.02;2.67;;;6.40;99.90;;;;;;5012487;28;20464;-66
2022/11/22 10:30:59;;;;;;;6.78;2.63;;;6.40;99.90;;;;;;5009739;28;20052;-65
2022/11/22 10:33:48;;;;;;;9.85;2.50;;;6.40;99.90;;;;;;5009169;28;20112;-64
2022/11/22 10:36:38;;;;;;;13.55;2.65;;;6.40;99.90;;;;;;4998516;28;20053;-64
2022/11/22 10:39:27;;;;;;;4.15;1.77;;;6.40;99.90;;;;;;5010314;28;20067;-64
2022/11/22 10:42:03;;;;;;;10.10;2.40;;;6.50;99.90;;;;;;5004660;28;20056;-63
2022/11/22 10:44:44;;;;;;;8.32;1.70;;;6.50;99.90;;;;;;5010785;28;20184;-65
2022/11/22 10:47:41;;;;;;;7.43;2.00;;;6.50;99.90;;;;;;5007644;28;20056;-64
2022/11/22 10:50:09;;;;;;;5.82;2.10;;;6.60;99.90;;;;;;5009026;28;20093;-64
2022/11/22 10:53:08;;;;;;;7.82;2.10;;;6.60;99.90;;;;;;5006978;28;20091;-63
2022/11/22 10:55:58;;;;;;;5.22;1.88;;;6.60;99.90;;;;;;5009424;28;20117;-65
2022/11/22 10:58:53;;;;;;;6.70;1.80;;;6.70;99.90;;;;;;5012178;28;20038;-64
2022/11/22 11:01:40;;;;;;;10.00;2.13;;;6.90;99.90;;;;;;5011741;28;20157;-64
2022/11/22 11:04:08;;;;;;;6.85;2.00;;;6.90;99.90;;;;;;5003020;28;20476;-64
2022/11/22 11:06:45;;;;;;;9.88;1.90;;;6.90;99.90;;;;;;5007941;28;20042;-65
2022/11/22 11:09:32;;;;;;;8.77;2.00;;;6.90;99.90;;;;;;5006698;28;20700;-65
2022/11/22 11:12:01;;;;;;;5.45;1.55;;;6.80;99.90;;;;;;4991865;28;20037;-64
2022/11/22 11:14:34;;;;;;;5.28;1.65;;;6.80;99.90;;;;;;5007586;28;20041;-64
2022/11/22 11:17:01;;;;;;;9.75;1.90;;;6.80;99.90;;;;;;5009220;28;20396;-64
2022/11/22 11:19:30;;;;;;;11.73;1.90;;;6.90;99.90;;;;;;5009265;28;20508;-64
2022/11/22 11:22:00;;;;;;;8.87;1.70;;;6.90;99.90;;;;;;5009287;28;20113;-64
2022/11/22 11:24:28;;;;;;;11.60;2.17;;;6.90;99.90;;;;;;5008622;28;20406;-65
2022/11/22 11:26:56;;;;;;;8.13;1.55;;;6.80;99.90;;;;;;5011971;28;20041;-65
2022/11/22 11:29:39;;;;;;;8.80;2.00;;;6.80;99.90;;;;;;5012646;28;20065;-65
2022/11/22 11:32:08;;;;;;;6.65;1.85;;;6.80;99.90;;;;;;5003666;28;20069;-64
2022/11/22 11:34:35;;;;;;;5.05;2.05;;;6.80;99.90;;;;;;5009456;28;20037;-64
2022/11/22 11:37:03;;;;;;;8.63;1.90;;;6.80;99.90;;;;;;5007005;28;20038;-65
2022/11/22 11:39:34;;;;;;;6.40;1.88;;;6.90;99.90;;;;;;5011115;28;20037;-64
2022/11/22 11:42:19;;;;;;;8.10;2.00;;;6.90;99.90;;;;;;5010451;28;20038;-64
2022/11/22 11:44:44;;;;;;;7.07;1.50;;;6.90;99.90;;;;;;4996642;28;20053;-64
2022/11/22 11:47:32;;;;;;;8.05;2.03;;;6.90;99.90;;;;;;4989813;28;20046;-64
2022/11/22 11:49:58;;;;;;;6.80;1.70;;;7.00;99.90;;;;;;5008717;28;20052;-65
2022/11/22 11:52:25;;;;;;;6.63;2.03;;;6.90;99.90;;;;;;5007254;28;20723;-64
2022/11/22 11:55:01;;;;;;;5.45;1.60;;;7.00;99.90;;;;;;5010206;28;20060;-64
2022/11/22 11:57:30;;;;;;;7.45;1.60;;;7.00;99.90;;;;;;5008957;28;20096;-65
2022/11/22 12:00:00;;;;;;;7.75;2.08;;;7.10;99.90;;;;;;5005618;28;20877;-64
2022/11/22 12:02:28;;;;;;;2.75;1.48;;;7.10;99.90;;;;;;5011035;28;20049;-65
2022/11/22 12:05:01;;;;;;;8.88;2.10;;;7.10;99.90;;;;;;5008567;28;20100;-65
2022/11/22 12:07:36;;;;;;;6.45;2.38;;;7.20;99.90;;;;;;5043391;28;20046;-65
2022/11/22 12:10:40;;;;;;;7.40;1.55;;;7.20;99.90;;;;;;5010559;28;20042;-65
2022/11/22 12:13:29;;;;;;;7.05;1.75;;;7.20;99.90;;;;;;4994018;28;20049;-64
2022/11/22 12:16:08;;;;;;;5.82;1.75;;;7.20;99.90;;;;;;4995834;28;20053;-64
2022/11/22 12:18:49;;;;;;;5.47;2.30;;;7.30;99.90;;;;;;4972280;28;20050;-64
2022/11/22 12:21:27;;;;;;;6.38;1.60;;;7.30;99.90;;;;;;5006723;28;20045;-65
2022/11/22 12:24:06;;;;;;;7.35;1.58;;;7.40;99.90;;;;;;4993180;28;20039;-64
2022/11/22 12:26:32;;;;;;;8.05;2.05;;;7.40;99.90;;;;;;5007626;28;20038;-65
2022/11/22 12:28:58;;;;;;;5.90;1.60;;;7.40;99.90;;;;;;5009619;28;20567;-65
2022/11/22 12:31:29;;;;;;;11.82;2.03;;;7.40;99.90;;;;;;5014259;28;20053;-65
2022/11/22 12:34:03;;;;;;;8.00;2.45;;;7.40;99.90;;;;;;5006847;28;20042;-64
2022/11/22 12:36:46;;;;;;;6.78;1.83;;;7.40;99.90;;;;;;5014072;28;20050;-64
2022/11/22 12:39:23;;;;;;;6.00;1.50;;;7.40;99.90;;;;;;5014535;28;20041;-65
2022/11/22 12:41:55;;;;;;;6.30;1.58;;;7.40;99.90;;;;;;5012409;28;20045;-64
2022/11/22 12:44:22;;;;;;;7.30;1.80;;;7.30;99.90;;;;;;4996276;28;20145;-65
2022/11/22 12:46:53;;;;;;;5.75;1.60;;;7.30;99.90;;;;;;5012621;28;20046;-64
2022/11/22 12:49:36;;;;;;;10.30;2.65;;;7.30;99.90;;;;;;5013223;28;20044;-65
2022/11/22 12:52:07;;;;;;;6.60;1.77;;;7.30;99.90;;;;;;4999196;28;20038;-64
2022/11/22 12:54:44;;;;;;;8.80;1.75;;;7.30;99.90;;;;;;5003286;28;20033;-64
2022/11/22 12:57:17;;;;;;;3.72;1.35;;;7.20;99.90;;;;;;5012725;28;20408;-64
2022/11/22 12:59:54;;;;;;;4.97;1.45;;;7.30;99.90;;;;;;5012794;28;20045;-64
2022/11/22 13:02:57;;;;;;;5.78;1.63;;;7.20;99.90;;;;;;5013575;28;20615;-64
2022/11/22 13:05:35;;;;;;;8.40;1.55;;;7.20;99.90;;;;;;4996952;28;20084;-65
2022/11/22 13:08:12;;;;;;;7.38;1.98;;;7.20;99.90;;;;;;5004919;28;20388;-65
2022/11/22 13:10:44;;;;;;;6.22;1.50;;;7.20;99.90;;;;;;5013051;28;20045;-64
2022/11/22 13:13:27;;;;;;;3.72;1.20;;;7.20;99.90;;;;;;5011063;28;20355;-64